Time;durP1;ratioP1;P1;durP2;ratioP2;P2;SDS_P1;SDS_P2;PMS_P1;PMS_P2;Temp;Humidity;BMP_temperature;BMP_pressure;BME280_temperature;BME280_humidity;BME280_pressure;Samples;Min_cycle;Max_cycle;Signal;HPM_P1;HPM_P2
2024/03/21 00:00:51;;;;;;;63.55;43.47;;;;;;;-146.25;100.00;52433.06;2079243;28;20050;-63
2024/03/21 00:01:52;;;;;;;63.00;43.20;;;;;;;-146.25;100.00;52422.94;2071502;28;20509;-63
2024/03/21 00:02:52;;;;;;;62.50;42.90;;;;;;;-146.25;100.00;52396.59;2070884;28;20042;-63
2024/03/21 00:03:53;;;;;;;59.13;42.05;;;;;;;-146.25;100.00;52402.66;2079357;28;20046;-62
2024/03/21 00:04:54;;;;;;;61.72;42.83;;;;;;;-146.25;100.00;52396.59;2078920;28;20423;-64
2024/03/21 00:05:55;;;;;;;66.43;41.60;;;;;;;-146.25;100.00;52410.78;2079362;28;20440;-64
2024/03/21 00:06:56;;;;;;;62.97;42.40;;;;;;;-146.25;100.00;52420.91;2080835;28;20046;-64
2024/03/21 00:07:57;;;;;;;66.88;43.78;;;;;;;-146.25;100.00;52390.50;2081091;28;20607;-63
2024/03/21 00:08:57;;;;;;;67.35;43.17;;;;;;;-146.25;100.00;52396.59;2072753;28;20043;-64
2024/03/21 00:09:58;;;;;;;61.63;42.05;;;;;;;-146.25;100.00;52408.75;2072563;28;20382;-64
2024/03/21 00:10:59;;;;;;;60.38;41.55;;;;;;;-146.25;100.00;52394.56;2080346;28;20049;-64
2024/03/21 00:12:00;;;;;;;64.43;43.60;;;;;;;-146.25;100.00;52404.69;2080860;28;20074;-63
2024/03/21 00:13:01;;;;;;;68.13;44.47;;;;;;;-146.25;100.00;52400.63;2072520;28;20043;-63
2024/03/21 00:14:01;;;;;;;56.45;39.28;;;;;;;-146.25;100.00;52400.63;2072851;28;20038;-63
2024/03/21 00:15:03;;;;;;;54.88;38.83;;;;;;;-146.25;100.00;52433.06;2072336;28;20205;-63
2024/03/21 00:16:07;;;;;;;56.45;39.42;;;;;;;-146.25;100.00;52386.44;2080513;28;20050;-64
2024/03/21 00:17:07;;;;;;;62.33;42.83;;;;;;;-146.25;100.00;52412.81;2073103;28;20855;-63
2024/03/21 00:18:13;;;;;;;58.03;40.25;;;;;;;-146.25;100.00;52408.75;2072371;28;20070;-64
2024/03/21 00:19:16;;;;;;;57.65;39.35;;;;;;;-146.25;100.00;52396.59;2064792;28;20906;-63
2024/03/21 00:20:17;;;;;;;62.10;41.55;;;;;;;-146.25;100.00;52370.22;2065630;28;20045;-64
2024/03/21 00:21:18;;;;;;;61.78;42.22;;;;;;;-146.25;100.00;52380.38;2072885;28;20043;-63
2024/03/21 00:22:19;;;;;;;61.70;40.75;;;;;;;-146.25;100.00;52433.06;2081112;28;20544;-63
2024/03/21 00:23:20;;;;;;;64.72;42.67;;;;;;;-146.25;100.00;52429.03;2072419;28;20125;-63
2024/03/21 00:24:21;;;;;;;61.45;41.22;;;;;;;-146.25;100.00;52392.53;2072658;28;20050;-64
2024/03/21 00:25:22;;;;;;;67.03;41.63;;;;;;;-146.25;100.00;52394.56;2072537;28;20555;-63
2024/03/21 00:26:23;;;;;;;68.53;43.78;;;;;;;-146.25;100.00;52429.03;2072075;28;20406;-64
2024/03/21 00:27:25;;;;;;;63.58;43.05;;;;;;;-146.25;100.00;52384.41;2081026;28;20042;-64
2024/03/21 00:28:26;;;;;;;64.72;43.35;;;;;;;-146.25;100.00;52453.34;2080426;28;20982;-64
2024/03/21 00:29:28;;;;;;;61.83;42.75;;;;;;;-146.25;100.00;52420.91;2072662;28;20050;-63
2024/03/21 00:30:28;;;;;;;66.07;43.28;;;;;;;-146.25;100.00;52427.00;2072354;28;20090;-64
2024/03/21 00:31:29;;;;;;;61.60;41.47;;;;;;;-146.25;100.00;52416.84;2072134;28;20537;-63
2024/03/21 00:32:31;;;;;;;57.28;40.75;;;;;;;-146.25;100.00;52420.91;2072621;28;20039;-64
2024/03/21 00:33:32;;;;;;;60.53;41.60;;;;;;;-146.25;100.00;52378.34;2072545;28;20058;-63
2024/03/21 00:34:33;;;;;;;65.40;43.35;;;;;;;-146.25;100.00;52437.13;2072308;28;20113;-64
2024/03/21 00:35:33;;;;;;;65.65;44.10;;;;;;;-146.25;100.00;52420.91;2072810;28;20117;-64
2024/03/21 00:36:35;;;;;;;71.25;44.38;;;;;;;-146.25;100.00;52414.84;2072499;28;20524;-64
2024/03/21 00:37:36;;;;;;;74.75;44.55;;;;;;;-146.25;100.00;52433.06;2073477;28;20251;-64
2024/03/21 00:38:36;;;;;;;64.10;42.30;;;;;;;-146.25;100.00;52410.78;2072259;28;20477;-63
2024/03/21 00:39:41;;;;;;;67.00;43.65;;;;;;;-146.25;100.00;52402.66;2072602;28;20047;-63
2024/03/21 00:40:42;;;;;;;62.38;41.72;;;;;;;-146.25;100.00;52384.41;2072705;28;20069;-64
2024/03/21 00:41:43;;;;;;;60.95;40.58;;;;;;;-146.25;100.00;52380.38;2072818;28;20047;-63
2024/03/21 00:42:44;;;;;;;60.10;40.33;;;;;;;-146.25;100.00;52424.97;2080344;28;20049;-64
2024/03/21 00:43:46;;;;;;;64.45;43.42;;;;;;;-146.25;100.00;52431.06;2081203;28;20042;-64
2024/03/21 00:44:50;;;;;;;67.20;44.30;;;;;;;-146.25;100.00;52427.00;2072394;28;20035;-63
2024/03/21 00:45:51;;;;;;;64.97;43.00;;;;;;;-146.25;100.00;52443.22;2080286;28;21154;-64
2024/03/21 00:46:52;;;;;;;67.78;45.20;;;;;;;-146.25;100.00;52412.81;2083363;28;20041;-64
2024/03/21 00:47:53;;;;;;;64.13;43.55;;;;;;;-146.25;100.00;52410.78;2089026;28;20041;-64
2024/03/21 00:48:56;;;;;;;65.93;43.47;;;;;;;-146.25;100.00;52435.09;2088104;28;20110;-64
2024/03/21 00:49:56;;;;;;;72.88;44.80;;;;;;;-146.25;100.00;52424.97;2080895;28;20042;-64
2024/03/21 00:50:57;;;;;;;69.30;45.03;;;;;;;-146.25;100.00;52380.38;2080410;28;20405;-64
2024/03/21 00:51:58;;;;;;;65.35;43.58;;;;;;;-146.25;100.00;52388.47;2080631;28;20037;-64
2024/03/21 00:52:59;;;;;;;67.53;43.67;;;;;;;-146.25;100.00;52406.72;2080362;28;20121;-63
2024/03/21 00:54:01;;;;;;;67.05;42.38;;;;;;;-146.25;100.00;52457.41;2081048;28;20034;-63
2024/03/21 00:55:02;;;;;;;68.50;44.17;;;;;;;-146.25;100.00;52400.63;2088428;28;20045;-64
2024/03/21 00:56:03;;;;;;;71.43;44.60;;;;;;;-146.25;100.00;52408.75;2089054;28;20072;-63
2024/03/21 00:57:04;;;;;;;65.72;43.97;;;;;;;-146.25;100.00;52408.75;2080203;28;20041;-63
2024/03/21 00:58:05;;;;;;;66.38;44.08;;;;;;;-146.25;100.00;52390.50;2080818;28;20041;-64
2024/03/21 00:59:06;;;;;;;69.88;42.75;;;;;;;-146.25;100.00;52376.31;2080334;28;20436;-64
2024/03/21 01:00:08;;;;;;;62.30;42.38;;;;;;;-146.25;100.00;52429.03;2088882;28;20173;-63
2024/03/21 01:01:09;;;;;;;68.22;41.85;;;;;;;-146.25;100.00;52384.41;2088319;28;21140;-63
2024/03/21 01:02:10;;;;;;;67.75;43.78;;;;;;;-146.25;100.00;52427.00;2080617;28;20146;-64
2024/03/21 01:03:12;;;;;;;69.45;44.00;;;;;;;-146.25;100.00;52418.88;2088591;28;20045;-63
2024/03/21 01:04:17;;;;;;;61.65;41.55;;;;;;;-146.25;100.00;52394.56;2088905;28;20045;-63
2024/03/21 01:05:20;;;;;;;67.10;43.28;;;;;;;-146.25;100.00;52384.41;2080514;28;20030;-63
2024/03/21 01:06:21;;;;;;;70.55;43.78;;;;;;;-146.25;100.00;52402.66;2081394;28;20935;-63
2024/03/21 01:07:22;;;;;;;69.70;44.85;;;;;;;-146.25;100.00;52408.75;2080471;28;20062;-63
2024/03/21 01:08:23;;;;;;;63.28;42.00;;;;;;;-146.25;100.00;52400.63;2080427;28;20388;-64
2024/03/21 01:09:24;;;;;;;71.22;44.58;;;;;;;-146.25;100.00;52406.72;2080446;28;20038;-64
2024/03/21 01:10:25;;;;;;;67.55;43.67;;;;;;;-146.25;100.00;52392.53;2080224;28;20850;-63
2024/03/21 01:11:26;;;;;;;67.38;43.45;;;;;;;-146.25;100.00;52386.44;2088306;28;20046;-64
2024/03/21 01:12:27;;;;;;;73.60;45.55;;;;;;;-146.25;100.00;52392.53;2088854;28;20124;-64
2024/03/21 01:13:28;;;;;;;75.10;46.42;;;;;;;-146.25;100.00;52400.63;2080524;28;20038;-63
2024/03/21 01:14:28;;;;;;;73.10;46.83;;;;;;;-146.25;100.00;52429.03;2080400;28;20038;-64
2024/03/21 01:15:30;;;;;;;72.47;44.60;;;;;;;-146.25;100.00;52420.91;2088560;28;20415;-64
2024/03/21 01:16:33;;;;;;;75.10;45.53;;;;;;;-146.25;100.00;52424.97;2088277;28;20049;-63
2024/03/21 01:17:36;;;;;;;70.53;44.90;;;;;;;-146.25;100.00;52418.88;2080164;28;20031;-63
2024/03/21 01:18:38;;;;;;;72.68;45.63;;;;;;;-146.25;100.00;52390.50;2096461;28;20036;-63
2024/03/21 01:19:39;;;;;;;69.20;44.83;;;;;;;-146.25;100.00;52392.53;2088225;28;20969;-63
2024/03/21 01:20:41;;;;;;;73.95;46.97;;;;;;;-146.25;100.00;52418.88;2088713;28;20046;-63
2024/03/21 01:21:43;;;;;;;70.68;46.55;;;;;;;-146.25;100.00;52414.84;2088436;28;20037;-63
2024/03/21 01:22:44;;;;;;;68.07;45.08;;;;;;;-146.25;100.00;52372.25;2080524;28;20030;-63
2024/03/21 01:23:47;;;;;;;71.40;45.05;;;;;;;-146.25;100.00;52418.88;2088557;28;20076;-63
2024/03/21 01:24:48;;;;;;;71.72;45.33;;;;;;;-146.25;100.00;52396.59;2080474;28;20893;-63
2024/03/21 01:25:49;;;;;;;73.75;47.42;;;;;;;-146.25;100.00;52402.66;2080396;28;20077;-63
2024/03/21 01:26:50;;;;;;;75.70;47.10;;;;;;;-146.25;100.00;52388.47;2080362;28;20492;-63
2024/03/21 01:27:51;;;;;;;73.35;46.08;;;;;;;-146.25;100.00;52386.44;2080655;28;20046;-63
2024/03/21 01:28:53;;;;;;;76.78;47.22;;;;;;;-146.25;100.00;52414.84;2088483;28;20045;-62
2024/03/21 01:29:53;;;;;;;70.80;46.33;;;;;;;-146.25;100.00;52400.63;2088588;28;20037;-63
2024/03/21 01:30:54;;;;;;;77.80;47.75;;;;;;;-146.25;100.00;52384.41;2080116;28;20519;-64
2024/03/21 01:31:55;;;;;;;74.07;45.45;;;;;;;-146.25;100.00;52429.03;2080523;28;20048;-64
2024/03/21 01:32:57;;;;;;;74.18;46.80;;;;;;;-146.25;100.00;52410.78;2080326;28;20046;-64
2024/03/21 01:33:58;;;;;;;73.03;46.13;;;;;;;-146.25;100.00;52416.84;2080413;28;20112;-63
2024/03/21 01:34:59;;;;;;;70.63;45.47;;;;;;;-146.25;100.00;52439.16;2079834;28;20053;-64
2024/03/21 01:36:00;;;;;;;76.13;47.22;;;;;;;-146.25;100.00;52437.13;2080639;28;20046;-64
2024/03/21 01:37:03;;;;;;;75.57;46.60;;;;;;;-146.25;100.00;52392.53;2079884;28;20038;-64
2024/03/21 01:38:04;;;;;;;75.45;45.25;;;;;;;-146.25;100.00;52370.22;2080701;28;20018;-63
2024/03/21 01:39:08;;;;;;;75.10;46.97;;;;;;;-146.25;100.00;52424.97;2079891;28;20053;-63
2024/03/21 01:40:11;;;;;;;72.93;47.05;;;;;;;-146.25;100.00;52376.31;2080715;28;20041;-63
2024/03/21 01:41:14;;;;;;;75.40;48.03;;;;;;;-146.25;100.00;52437.13;2080477;28;20194;-63
2024/03/21 01:42:19;;;;;;;76.15;47.00;;;;;;;-146.25;100.00;52424.97;2080327;28;20034;-63
2024/03/21 01:43:24;;;;;;;76.53;46.97;;;;;;;-146.25;100.00;52400.63;2072055;28;20916;-63
2024/03/21 01:44:28;;;;;;;78.35;48.28;;;;;;;-146.25;100.00;52396.59;2065139;28;20057;-63
2024/03/21 01:45:28;;;;;;;78.85;48.70;;;;;;;-146.25;100.00;52370.22;2080927;28;20042;-63
2024/03/21 01:46:29;;;;;;;80.60;47.42;;;;;;;-146.25;100.00;52431.06;2096198;28;20048;-64
2024/03/21 01:47:30;;;;;;;79.13;47.80;;;;;;;-146.25;100.00;52402.66;2079718;28;20066;-63
2024/03/21 01:48:31;;;;;;;78.78;47.75;;;;;;;-146.25;100.00;52400.63;2080440;28;20444;-63
2024/03/21 01:49:32;;;;;;;85.95;47.20;;;;;;;-146.25;100.00;52414.84;2080473;28;20046;-63
2024/03/21 01:50:35;;;;;;;82.28;48.00;;;;;;;-146.25;100.00;52408.75;2088304;28;20491;-64
2024/03/21 01:51:38;;;;;;;81.68;47.83;;;;;;;-146.25;100.00;52408.75;2088079;28;20030;-64
2024/03/21 01:52:43;;;;;;;78.22;47.10;;;;;;;-146.25;100.00;52400.63;2088779;28;20883;-63
2024/03/21 01:53:49;;;;;;;79.85;47.13;;;;;;;-146.25;100.00;52366.16;2080197;28;20042;-64
2024/03/21 01:54:50;;;;;;;77.20;46.50;;;;;;;-146.25;100.00;52388.47;2080717;28;20977;-63
2024/03/21 01:55:51;;;;;;;81.93;46.72;;;;;;;-146.25;100.00;52437.13;2079700;28;20029;-64
2024/03/21 01:56:53;;;;;;;79.05;46.15;;;;;;;-146.25;100.00;52398.59;2081015;28;20094;-62
2024/03/21 01:57:54;;;;;;;77.32;45.20;;;;;;;-146.25;100.00;52400.63;2080007;28;20042;-63
2024/03/21 01:58:55;;;;;;;77.07;46.60;;;;;;;-146.25;100.00;52427.00;2080240;28;20068;-63
2024/03/21 01:59:56;;;;;;;75.55;46.15;;;;;;;-146.25;100.00;52410.78;2087569;28;20053;-63
2024/03/21 02:00:57;;;;;;;74.78;46.13;;;;;;;-146.25;100.00;52424.97;2088200;28;20046;-65
2024/03/21 02:01:58;;;;;;;71.25;42.25;;;;;;;-146.25;100.00;52412.81;2080081;28;20939;-63
2024/03/21 02:02:59;;;;;;;80.20;46.22;;;;;;;-146.25;100.00;52437.13;2080217;28;20038;-63
2024/03/21 02:04:03;;;;;;;71.70;43.95;;;;;;;-146.25;100.00;52374.28;2079739;28;20046;-64
2024/03/21 02:05:05;;;;;;;80.35;46.70;;;;;;;-146.25;100.00;52412.81;2080259;28;20041;-64
2024/03/21 02:06:08;;;;;;;76.70;46.55;;;;;;;-146.25;100.00;52429.03;2087502;28;20045;-64
2024/03/21 02:07:13;;;;;;;79.40;46.38;;;;;;;-146.25;100.00;52412.81;2088698;28;20065;-63
2024/03/21 02:08:14;;;;;;;78.90;46.53;;;;;;;-146.25;100.00;52396.59;2087994;28;20926;-62
2024/03/21 02:09:21;;;;;;;76.55;43.65;;;;;;;-146.25;100.00;52433.06;2079763;28;20136;-63
2024/03/21 02:10:22;;;;;;;72.15;43.75;;;;;;;-146.25;100.00;52457.41;2080688;28;20934;-63
2024/03/21 02:11:22;;;;;;;75.22;45.20;;;;;;;-146.25;100.00;52441.19;2088160;28;20056;-64
2024/03/21 02:12:48;;;;;;;76.03;44.53;;;;;;;-146.25;100.00;52416.84;2080076;28;20049;-62
2024/03/21 02:13:53;;;;;;;77.70;45.38;;;;;;;-146.25;100.00;52435.09;2083431;28;20040;-63
2024/03/21 02:14:54;;;;;;;70.05;42.75;;;;;;;-146.25;100.00;52396.59;2080128;28;20038;-63
2024/03/21 02:15:55;;;;;;;76.93;43.92;;;;;;;-146.25;100.00;52431.06;2071613;28;21015;-63
2024/03/21 02:16:56;;;;;;;73.45;44.42;;;;;;;-146.25;100.00;52424.97;2071130;28;20053;-63
2024/03/21 02:17:58;;;;;;;73.22;43.70;;;;;;;-146.25;100.00;52388.47;2080137;28;20448;-62
2024/03/21 02:18:59;;;;;;;72.40;43.90;;;;;;;-146.25;100.00;52433.06;2080024;28;20073;-63
2024/03/21 02:20:00;;;;;;;67.95;42.55;;;;;;;-146.25;100.00;52457.41;2079931;28;20389;-64
2024/03/21 02:21:04;;;;;;;77.47;44.17;;;;;;;-146.25;100.00;52412.81;2087329;28;20069;-63
2024/03/21 02:23:24;;;;;;;74.22;41.88;;;;;;;-146.25;100.00;52394.56;2074364;28;20038;-63
2024/03/21 02:24:25;;;;;;;69.40;41.55;;;;;;;-146.25;100.00;52453.34;2073791;28;20421;-64
2024/03/21 02:25:25;;;;;;;74.13;43.55;;;;;;;-146.25;100.00;52414.84;2079844;28;20042;-63
2024/03/21 02:26:27;;;;;;;70.82;40.85;;;;;;;-146.25;100.00;52408.75;2080061;28;20158;-64
2024/03/21 02:27:27;;;;;;;65.63;39.58;;;;;;;-146.25;100.00;52418.88;2080075;28;20116;-64
2024/03/21 02:28:30;;;;;;;65.90;40.65;;;;;;;-146.25;100.00;52416.84;2079985;28;20112;-64
2024/03/21 02:29:31;;;;;;;69.85;39.60;;;;;;;-146.25;100.00;52398.59;2079874;28;20057;-64
2024/03/21 02:30:32;;;;;;;64.45;38.55;;;;;;;-146.25;100.00;52416.84;2079908;28;20496;-64
2024/03/21 02:31:33;;;;;;;65.53;38.10;;;;;;;-146.25;100.00;52418.88;2079618;28;20077;-63
2024/03/21 02:32:34;;;;;;;61.15;38.55;;;;;;;-146.25;100.00;52449.31;2079801;28;20052;-63
2024/03/21 02:33:35;;;;;;;63.08;38.90;;;;;;;-146.25;100.00;52400.63;2079999;28;20038;-63
2024/03/21 02:34:38;;;;;;;65.57;38.47;;;;;;;-146.25;100.00;52441.19;2080533;28;20093;-64
2024/03/21 02:35:38;;;;;;;68.97;38.67;;;;;;;-146.25;100.00;52435.09;2088187;28;20080;-64
2024/03/21 02:36:39;;;;;;;64.55;38.22;;;;;;;-146.25;100.00;52437.13;2096471;28;20115;-64
2024/03/21 02:37:40;;;;;;;65.90;38.42;;;;;;;-146.25;100.00;52414.84;2079793;28;20046;-63
2024/03/21 02:38:41;;;;;;;66.32;39.22;;;;;;;-146.25;100.00;52433.06;2079851;28;20428;-64
2024/03/21 02:39:46;;;;;;;63.53;38.13;;;;;;;-146.25;100.00;52433.06;2079546;28;20099;-64
2024/03/21 02:40:49;;;;;;;69.20;40.38;;;;;;;-146.25;100.00;52443.22;2080661;28;20038;-64
2024/03/21 02:41:50;;;;;;;64.72;38.03;;;;;;;-146.25;100.00;52418.88;2080018;28;20050;-63
2024/03/21 02:42:51;;;;;;;69.30;39.60;;;;;;;-146.25;100.00;52424.97;2080070;28;20108;-64
2024/03/21 02:43:52;;;;;;;63.55;38.90;;;;;;;-146.25;100.00;52414.84;2079605;28;20911;-62
2024/03/21 02:44:53;;;;;;;62.72;38.33;;;;;;;-146.25;100.00;52400.63;2079740;28;20089;-64
2024/03/21 02:45:53;;;;;;;67.65;40.40;;;;;;;-146.25;100.00;52420.91;2079812;28;20042;-63
2024/03/21 02:46:54;;;;;;;68.28;39.25;;;;;;;-146.25;100.00;52396.59;2079531;28;20046;-63
2024/03/21 02:47:55;;;;;;;72.55;39.67;;;;;;;-146.25;100.00;52433.06;2071629;28;20050;-64
2024/03/21 02:48:56;;;;;;;67.75;38.88;;;;;;;-146.25;100.00;52427.00;2071571;28;20035;-63
2024/03/21 02:49:57;;;;;;;63.83;37.70;;;;;;;-146.25;100.00;52378.34;2079818;28;20049;-63
2024/03/21 02:51:01;;;;;;;65.20;37.30;;;;;;;-146.25;100.00;52431.06;2088148;28;20160;-62
2024/03/21 02:52:01;;;;;;;62.83;37.08;;;;;;;-146.25;100.00;52408.75;2087562;28;20543;-63
2024/03/21 02:53:04;;;;;;;64.97;36.80;;;;;;;-146.25;100.00;52376.31;2080099;28;20069;-62
2024/03/21 02:54:04;;;;;;;65.45;38.17;;;;;;;-146.25;100.00;52416.84;2079747;28;20046;-63
2024/03/21 02:55:05;;;;;;;60.58;35.85;;;;;;;-146.25;100.00;52398.59;2079414;28;20053;-63
2024/03/21 02:56:06;;;;;;;58.40;36.72;;;;;;;-146.25;100.00;52398.59;2079483;28;20054;-63
2024/03/21 02:57:11;;;;;;;56.88;35.50;;;;;;;-146.25;100.00;52418.88;2080030;28;20049;-63
2024/03/21 02:58:15;;;;;;;57.60;35.47;;;;;;;-146.25;100.00;52418.88;2079952;28;20096;-63
2024/03/21 02:59:15;;;;;;;60.80;36.00;;;;;;;-146.25;100.00;52408.75;2079880;28;20950;-63
2024/03/21 03:00:16;;;;;;;57.67;35.17;;;;;;;-146.25;100.00;52404.69;2086420;28;20046;-63
2024/03/21 03:01:17;;;;;;;55.05;33.85;;;;;;;-146.25;100.00;52416.84;2079752;28;20141;-63
2024/03/21 03:02:18;;;;;;;53.30;32.38;;;;;;;-146.25;100.00;52400.63;2071187;28;20038;-64
2024/03/21 03:03:19;;;;;;;48.30;31.25;;;;;;;-146.25;100.00;52429.03;2079907;28;20038;-63
2024/03/21 03:04:22;;;;;;;49.35;31.17;;;;;;;-146.25;100.00;52418.88;2079460;28;20057;-63
2024/03/21 03:05:23;;;;;;;49.58;30.00;;;;;;;-146.25;100.00;52400.63;2071948;28;20038;-63
2024/03/21 03:06:23;;;;;;;53.35;28.45;;;;;;;-146.25;100.00;52420.91;2071325;28;20046;-63
2024/03/21 03:07:24;;;;;;;49.55;29.92;;;;;;;-146.25;100.00;52431.06;2071674;28;20472;-63
2024/03/21 03:08:25;;;;;;;45.08;28.38;;;;;;;-146.25;100.00;52420.91;2079339;28;20045;-64
2024/03/21 03:09:26;;;;;;;42.40;27.33;;;;;;;-146.25;100.00;52420.91;2079521;28;20045;-64
2024/03/21 03:10:29;;;;;;;41.63;26.52;;;;;;;-146.25;100.00;52394.56;2079699;28;20038;-64
2024/03/21 03:11:30;;;;;;;43.58;26.52;;;;;;;-146.25;100.00;52424.97;2087969;28;20041;-64
2024/03/21 03:12:31;;;;;;;42.88;26.60;;;;;;;-146.25;100.00;52416.84;2087862;28;20132;-64
2024/03/21 03:13:34;;;;;;;43.53;27.02;;;;;;;-146.25;100.00;52414.84;2079908;28;21001;-64
2024/03/21 03:14:37;;;;;;;37.42;23.95;;;;;;;-146.25;100.00;52416.84;2071429;28;20169;-63
2024/03/21 03:15:38;;;;;;;37.20;25.55;;;;;;;-146.25;100.00;52437.13;2071670;28;20804;-63
2024/03/21 03:16:39;;;;;;;38.00;24.50;;;;;;;-146.25;100.00;52424.97;2080615;28;20046;-64
2024/03/21 03:17:39;;;;;;;34.28;23.05;;;;;;;-146.25;100.00;52400.63;2087819;28;20103;-64
2024/03/21 03:18:40;;;;;;;36.00;23.00;;;;;;;-146.25;100.00;52420.91;2087502;28;20435;-63
2024/03/21 03:19:41;;;;;;;35.83;23.60;;;;;;;-146.25;100.00;52396.59;2079686;28;20049;-64
2024/03/21 03:20:42;;;;;;;33.55;22.23;;;;;;;-146.25;100.00;52424.97;2079512;28;20038;-64
2024/03/21 03:21:43;;;;;;;34.58;22.27;;;;;;;-146.25;100.00;52386.44;2079787;28;20034;-64
2024/03/21 03:22:44;;;;;;;32.78;21.17;;;;;;;-146.25;100.00;52449.31;2079380;28;20050;-64
2024/03/21 03:23:45;;;;;;;31.52;20.98;;;;;;;-146.25;100.00;52429.03;2079581;28;20488;-64
2024/03/21 03:24:48;;;;;;;34.55;20.05;;;;;;;-146.25;100.00;52406.72;2078865;28;20497;-64
2024/03/21 03:25:49;;;;;;;31.35;20.65;;;;;;;-146.25;100.00;52406.72;2095832;28;20119;-64
2024/03/21 03:26:49;;;;;;;32.85;21.55;;;;;;;-146.25;100.00;52431.06;2087525;28;20041;-64
2024/03/21 03:27:50;;;;;;;29.65;20.05;;;;;;;-146.25;100.00;52400.63;2087667;28;20076;-64
2024/03/21 03:28:51;;;;;;;30.50;19.73;;;;;;;-146.25;100.00;52410.78;2087543;28;20042;-64
2024/03/21 03:29:52;;;;;;;30.35;20.20;;;;;;;-146.25;100.00;52429.03;2079728;28;20555;-64
2024/03/21 03:30:53;;;;;;;28.65;19.23;;;;;;;-146.25;100.00;52435.09;2079584;28;20161;-64
2024/03/21 03:32:01;;;;;;;30.38;18.77;;;;;;;-146.25;100.00;52424.97;2079261;28;20535;-64
2024/03/21 03:35:45;;;;;;;26.98;18.02;;;;;;;-146.25;100.00;52412.81;2081877;28;20030;-64
2024/03/21 03:36:46;;;;;;;27.35;17.30;;;;;;;-146.25;100.00;52418.88;2079424;28;20042;-65
2024/03/21 03:37:46;;;;;;;26.00;17.60;;;;;;;-146.25;100.00;52414.84;2087120;28;20104;-65
2024/03/21 03:38:47;;;;;;;25.83;16.38;;;;;;;-146.25;100.00;52429.03;2079847;28;20489;-64
2024/03/21 03:39:48;;;;;;;28.45;17.30;;;;;;;-146.25;100.00;52410.78;2079155;28;20069;-65
2024/03/21 03:40:51;;;;;;;25.02;16.38;;;;;;;-146.25;100.00;52372.25;2079571;28;20069;-65
2024/03/21 03:41:52;;;;;;;21.98;15.27;;;;;;;-146.25;100.00;52420.91;2079878;28;20050;-64
2024/03/21 03:42:53;;;;;;;23.00;15.65;;;;;;;-146.25;100.00;52437.13;2080704;28;20467;-64
2024/03/21 03:43:53;;;;;;;22.75;15.68;;;;;;;-146.25;100.00;52416.84;2080622;28;20054;-64
2024/03/21 03:44:56;;;;;;;22.88;14.52;;;;;;;-146.25;100.00;52392.53;2080870;28;20042;-64
2024/03/21 03:45:57;;;;;;;22.90;14.82;;;;;;;-146.25;100.00;52414.84;2081212;28;20065;-64
2024/03/21 03:46:58;;;;;;;23.25;14.00;;;;;;;-146.25;100.00;52402.66;2080874;28;20137;-64
2024/03/21 03:48:02;;;;;;;20.63;13.82;;;;;;;-146.25;100.00;52406.72;2080850;28;20471;-63
2024/03/21 03:49:03;;;;;;;19.23;13.00;;;;;;;-146.25;100.00;52445.25;2081393;28;20101;-64
2024/03/21 03:50:04;;;;;;;21.23;13.45;;;;;;;-146.25;100.00;52437.13;2080624;28;20045;-64
2024/03/21 03:51:07;;;;;;;19.35;13.75;;;;;;;-146.25;100.00;52408.75;2081205;28;20102;-64
2024/03/21 03:52:08;;;;;;;17.02;12.15;;;;;;;-146.25;100.00;52400.63;2088929;28;20152;-64
2024/03/21 03:53:09;;;;;;;20.88;12.77;;;;;;;-146.25;100.00;52429.03;2089416;28;20412;-63
2024/03/21 03:54:09;;;;;;;16.65;11.88;;;;;;;-146.25;100.00;52396.59;2088978;28;20044;-64
2024/03/21 03:55:10;;;;;;;19.45;12.45;;;;;;;-146.25;100.00;52418.88;2080976;28;20596;-64
2024/03/21 03:56:16;;;;;;;18.00;11.65;;;;;;;-146.25;100.00;52422.94;2088831;28;20045;-63
2024/03/21 03:57:17;;;;;;;15.57;11.23;;;;;;;-146.25;100.00;52408.75;2081472;28;20907;-64
2024/03/21 03:58:19;;;;;;;17.00;11.50;;;;;;;-146.25;100.00;52416.84;2089008;28;20042;-63
2024/03/21 03:59:25;;;;;;;17.75;12.00;;;;;;;-146.25;100.00;52404.69;2089266;28;20839;-63
2024/03/21 04:00:28;;;;;;;17.63;10.93;;;;;;;-146.25;100.00;52412.81;2081277;28;20034;-64
2024/03/21 04:01:29;;;;;;;17.27;11.20;;;;;;;-146.25;100.00;52416.84;2080994;28;20933;-64
2024/03/21 04:02:33;;;;;;;15.40;10.82;;;;;;;-146.25;100.00;52441.19;2081204;28;20083;-64
2024/03/21 04:03:34;;;;;;;14.18;11.10;;;;;;;-146.25;100.00;52445.25;2080891;28;20050;-63
2024/03/21 04:04:35;;;;;;;14.43;10.90;;;;;;;-146.25;100.00;52439.16;2080529;28;20117;-64
2024/03/21 04:05:38;;;;;;;16.20;10.80;;;;;;;-146.25;100.00;52422.94;2080803;28;20063;-63
2024/03/21 04:06:40;;;;;;;15.75;10.38;;;;;;;-146.25;100.00;52427.00;2080805;28;21161;-64
2024/03/21 04:07:44;;;;;;;13.57;9.98;;;;;;;-146.25;100.00;52424.97;2081116;28;20093;-63
2024/03/21 04:08:47;;;;;;;13.60;9.80;;;;;;;-146.25;100.00;52431.06;2080690;28;20927;-63
2024/03/21 04:09:50;;;;;;;14.18;10.00;;;;;;;-146.25;100.00;52439.16;2089389;28;20926;-64
2024/03/21 04:10:51;;;;;;;14.02;10.02;;;;;;;-146.25;100.00;52453.34;2096451;28;20040;-64
2024/03/21 04:11:52;;;;;;;14.43;9.68;;;;;;;-146.25;100.00;52424.97;2089159;28;20037;-64
2024/03/21 04:12:53;;;;;;;11.90;9.40;;;;;;;-146.25;100.00;52364.13;2088963;28;20050;-64
2024/03/21 04:13:54;;;;;;;11.80;9.02;;;;;;;-146.25;100.00;52435.09;2089075;28;20096;-63
2024/03/21 04:14:55;;;;;;;13.07;9.25;;;;;;;-146.25;100.00;52481.75;2080631;28;20046;-64
2024/03/21 04:15:56;;;;;;;10.95;8.50;;;;;;;-146.25;100.00;52465.53;2089071;28;20038;-63
2024/03/21 04:16:57;;;;;;;12.13;8.35;;;;;;;-146.25;100.00;52459.44;2088601;28;20129;-64
2024/03/21 04:17:58;;;;;;;11.10;8.73;;;;;;;-146.25;100.00;52410.78;2081078;28;20046;-64
2024/03/21 04:18:59;;;;;;;10.27;7.97;;;;;;;-146.25;100.00;52453.34;2080567;28;20517;-64
2024/03/21 04:20:06;;;;;;;11.98;8.27;;;;;;;-146.25;100.00;52433.06;2080724;28;20042;-64
2024/03/21 04:21:07;;;;;;;10.18;8.27;;;;;;;-146.25;100.00;52429.03;2081917;28;20034;-64
2024/03/21 04:22:08;;;;;;;10.20;8.35;;;;;;;-146.25;100.00;52437.13;2089130;28;20034;-63
2024/03/21 04:23:09;;;;;;;9.85;8.15;;;;;;;-146.25;100.00;52437.13;2088716;28;20045;-65
2024/03/21 04:24:10;;;;;;;10.85;8.52;;;;;;;-146.25;100.00;52435.09;2080889;28;20435;-63
2024/03/21 04:25:13;;;;;;;9.20;7.68;;;;;;;-146.25;100.00;52420.91;2081208;28;20965;-64
2024/03/21 04:26:13;;;;;;;11.93;8.18;;;;;;;-146.25;100.00;52437.13;2088874;28;20096;-64
2024/03/21 04:27:14;;;;;;;10.05;8.70;;;;;;;-146.25;100.00;52459.44;2088824;28;20116;-64
2024/03/21 04:28:15;;;;;;;11.20;9.15;;;;;;;-146.25;100.00;52457.41;2080635;28;20129;-64
2024/03/21 04:29:18;;;;;;;10.40;8.40;;;;;;;-146.25;100.00;52414.84;2080120;28;20038;-64
2024/03/21 04:30:19;;;;;;;10.80;8.80;;;;;;;-146.25;100.00;52449.31;2080902;28;20074;-64
2024/03/21 04:31:20;;;;;;;9.20;8.18;;;;;;;-146.25;100.00;52414.84;2088753;28;20479;-64
2024/03/21 04:32:21;;;;;;;9.25;8.27;;;;;;;-146.25;100.00;52465.53;2096943;28;20045;-64
2024/03/21 04:33:24;;;;;;;9.93;8.50;;;;;;;-146.25;100.00;52441.19;2081083;28;20034;-64
2024/03/21 04:34:25;;;;;;;10.50;9.40;;;;;;;-146.25;100.00;52465.53;2080767;28;20064;-64
2024/03/21 04:35:26;;;;;;;12.63;9.55;;;;;;;-146.25;100.00;52437.13;2080440;28;20046;-64
2024/03/21 04:36:29;;;;;;;11.43;9.52;;;;;;;-146.25;100.00;52445.25;2080623;28;20866;-63
2024/03/21 04:37:30;;;;;;;11.65;9.73;;;;;;;-146.25;100.00;52445.25;2081045;28;20038;-64
2024/03/21 04:38:32;;;;;;;16.20;10.85;;;;;;;-146.25;100.00;52420.91;2080371;28;20089;-64